Time;durP1;ratioP1;P1;durP2;ratioP2;P2;SDS_P1;SDS_P2;PMS_P1;PMS_P2;Temp;Humidity;BMP_temperature;BMP_pressure;BME280_temperature;BME280_humidity;BME280_pressure;Samples;Min_cycle;Max_cycle;Signal;HPM_P1;HPM_P2
2023/01/31 00:00:47;;;;;;;0.10;0.10;;;3.90;87.60;;;;;;4970914;28;20070;-66
2023/01/31 00:03:13;;;;;;;0.00;0.00;;;3.90;87.60;;;;;;4968217;28;20488;-66
2023/01/31 00:05:38;;;;;;;0.00;0.00;;;3.80;87.70;;;;;;4970051;28;20047;-66
2023/01/31 00:08:04;;;;;;;0.00;0.00;;;3.70;87.70;;;;;;4970013;28;20046;-66
2023/01/31 00:10:30;;;;;;;0.10;0.10;;;3.70;87.80;;;;;;4970614;28;20054;-66
2023/01/31 00:12:56;;;;;;;0.00;0.00;;;3.70;87.80;;;;;;4953981;28;20050;-66
2023/01/31 00:15:22;;;;;;;0.00;0.00;;;3.70;87.90;;;;;;4953987;28;20081;-66
2023/01/31 00:17:47;;;;;;;0.10;0.10;;;3.70;87.90;;;;;;4970290;28;20137;-66
2023/01/31 00:20:13;;;;;;;0.47;0.47;;;3.70;88.00;;;;;;4970359;28;20133;-67
2023/01/31 00:22:38;;;;;;;0.00;0.00;;;3.70;88.10;;;;;;4970686;28;20042;-66
2023/01/31 00:25:04;;;;;;;0.00;0.00;;;3.70;88.00;;;;;;4970620;28;20050;-66
2023/01/31 00:27:30;;;;;;;15.00;1.75;;;3.60;88.10;;;;;;4970775;28;20046;-67
2023/01/31 00:29:55;;;;;;;0.00;0.00;;;3.60;88.10;;;;;;4969918;28;20042;-66
2023/01/31 00:32:21;;;;;;;0.10;0.10;;;3.60;88.10;;;;;;4970027;28;20054;-67
2023/01/31 00:34:47;;;;;;;0.00;0.00;;;3.60;88.20;;;;;;4970596;28;20090;-67
2023/01/31 00:37:12;;;;;;;0.08;0.08;;;3.60;88.00;;;;;;4961330;28;20051;-66
2023/01/31 00:39:38;;;;;;;1.20;1.20;;;3.50;88.20;;;;;;4951258;28;20097;-67
2023/01/31 00:42:03;;;;;;;0.00;0.00;;;3.50;88.10;;;;;;4950969;28;20079;-67
2023/01/31 00:44:29;;;;;;;0.00;0.00;;;3.50;88.30;;;;;;4950864;28;20424;-67
2023/01/31 00:46:54;;;;;;;0.00;0.00;;;3.50;88.40;;;;;;4950844;28;20050;-67
2023/01/31 00:49:20;;;;;;;1.75;1.65;;;3.60;88.50;;;;;;4951225;28;20508;-67
2023/01/31 00:51:46;;;;;;;0.00;0.00;;;3.60;88.60;;;;;;4933587;28;20062;-67
2023/01/31 00:54:12;;;;;;;0.00;0.00;;;3.60;88.70;;;;;;4951217;28;21091;-66
2023/01/31 00:56:37;;;;;;;0.17;0.17;;;3.60;88.90;;;;;;4951655;28;20133;-66
2023/01/31 00:59:07;;;;;;;0.00;0.00;;;3.70;89.10;;;;;;4970212;28;20047;-67
2023/01/31 01:01:34;;;;;;;0.08;0.08;;;3.70;89.20;;;;;;4936882;28;20050;-67
2023/01/31 01:04:00;;;;;;;0.00;0.00;;;3.70;89.30;;;;;;4952309;28;20047;-66
2023/01/31 01:06:27;;;;;;;0.00;0.00;;;3.80;89.30;;;;;;4968500;28;20054;-66
2023/01/31 01:08:53;;;;;;;1.00;0.90;;;3.90;89.70;;;;;;4950800;28;20075;-66
2023/01/31 01:11:30;;;;;;;0.00;0.00;;;3.80;89.50;;;;;;4970038;28;20057;-66
2023/01/31 01:13:57;;;;;;;0.00;0.00;;;3.90;89.60;;;;;;4952745;28;20050;-66
2023/01/31 01:16:26;;;;;;;0.00;0.00;;;4.00;89.60;;;;;;4970331;28;20051;-67
2023/01/31 01:18:53;;;;;;;0.00;0.00;;;4.00;89.60;;;;;;4973603;28;20047;-67
2023/01/31 01:21:24;;;;;;;0.00;0.00;;;4.00;89.50;;;;;;4956800;28;20089;-67
2023/01/31 01:23:51;;;;;;;0.05;0.05;;;4.00;89.40;;;;;;4972280;28;20051;-67
2023/01/31 01:26:19;;;;;;;0.00;0.00;;;4.10;89.40;;;;;;4969289;28;20039;-66
2023/01/31 01:28:45;;;;;;;0.30;0.30;;;4.10;89.30;;;;;;4948922;28;20182;-66
2023/01/31 01:31:13;;;;;;;0.00;0.00;;;4.10;89.30;;;;;;4954061;28;20047;-66
2023/01/31 01:33:38;;;;;;;0.10;0.10;;;4.10;89.20;;;;;;4964352;28;20034;-67
2023/01/31 01:36:06;;;;;;;0.00;0.00;;;4.10;89.20;;;;;;4956367;28;20189;-66
2023/01/31 01:38:36;;;;;;;0.00;0.00;;;4.10;89.20;;;;;;4956092;28;20054;-66
2023/01/31 01:41:03;;;;;;;0.98;0.98;;;4.10;89.10;;;;;;4953755;28;20051;-67
2023/01/31 01:43:43;;;;;;;0.77;0.73;;;4.10;89.20;;;;;;4954142;28;20504;-67
2023/01/31 01:46:12;;;;;;;0.00;0.00;;;4.10;89.10;;;;;;4966628;28;20101;-66
2023/01/31 01:48:38;;;;;;;1.77;1.65;;;4.20;89.20;;;;;;4973108;28;20575;-66
2023/01/31 01:51:06;;;;;;;0.00;0.00;;;4.20;89.20;;;;;;4968637;28;20097;-66
2023/01/31 01:53:33;;;;;;;3.10;1.45;;;4.20;89.30;;;;;;4954946;28;20046;-67
2023/01/31 01:56:08;;;;;;;0.00;0.00;;;4.30;89.40;;;;;;4931775;29;20059;-66
2023/01/31 01:58:41;;;;;;;0.00;0.00;;;4.20;89.40;;;;;;4953960;28;20101;-67
2023/01/31 02:01:08;;;;;;;0.10;0.10;;;4.30;89.50;;;;;;4953412;28;20050;-66
2023/01/31 02:03:35;;;;;;;0.08;0.08;;;4.30;89.50;;;;;;4972795;28;20051;-66
2023/01/31 02:06:04;;;;;;;0.08;0.08;;;4.40;89.60;;;;;;4938657;28;20125;-67
2023/01/31 02:08:33;;;;;;;0.00;0.00;;;4.40;89.80;;;;;;4953818;28;20050;-67
2023/01/31 02:11:22;;;;;;;0.00;0.00;;;4.40;89.90;;;;;;4953401;28;20386;-66
2023/01/31 02:13:52;;;;;;;0.00;0.00;;;4.50;89.90;;;;;;4972664;28;20077;-67
2023/01/31 02:16:18;;;;;;;0.00;0.00;;;4.50;90.00;;;;;;4972942;28;20126;-66
2023/01/31 02:18:46;;;;;;;0.55;0.55;;;4.50;90.00;;;;;;4972747;28;20130;-66
2023/01/31 02:21:29;;;;;;;0.00;0.00;;;4.50;89.90;;;;;;4972712;28;20050;-66
2023/01/31 02:24:26;;;;;;;0.00;0.00;;;4.50;89.90;;;;;;4972809;28;20042;-66
2023/01/31 02:27:45;;;;;;;0.00;0.00;;;4.60;89.90;;;;;;4972533;28;20042;-67
2023/01/31 02:30:23;;;;;;;0.00;0.00;;;4.60;89.80;;;;;;4912161;29;20055;-66
2023/01/31 02:33:09;;;;;;;0.00;0.00;;;4.60;89.70;;;;;;4912915;29;20474;-66
2023/01/31 02:35:54;;;;;;;0.00;0.00;;;4.60;89.80;;;;;;4952680;28;20651;-66
2023/01/31 02:38:41;;;;;;;0.00;0.00;;;4.60;89.70;;;;;;4967982;28;20133;-67
2023/01/31 02:41:16;;;;;;;0.00;0.00;;;4.60;89.60;;;;;;4944834;28;20055;-67
2023/01/31 02:47:00;;;;;;;0.00;0.00;;;4.50;89.70;;;;;;4969557;28;20054;-66
2023/01/31 02:49:39;;;;;;;0.00;0.00;;;4.50;89.70;;;;;;4954953;28;20816;-67
2023/01/31 02:52:34;;;;;;;0.00;0.00;;;4.50;89.70;;;;;;4972211;28;20046;-66
2023/01/31 02:57:51;;;;;;;0.00;0.00;;;4.50;89.80;;;;;;4971983;28;20161;-66
2023/01/31 03:00:19;;;;;;;0.00;0.00;;;4.60;89.90;;;;;;4954750;28;20051;-66
2023/01/31 03:02:45;;;;;;;0.00;0.00;;;4.60;90.00;;;;;;4957658;28;20863;-66
2023/01/31 03:05:14;;;;;;;0.00;0.00;;;4.60;90.10;;;;;;4953111;28;20118;-67
2023/01/31 03:07:43;;;;;;;0.00;0.00;;;4.70;90.10;;;;;;4969996;28;20578;-66
2023/01/31 03:10:08;;;;;;;0.03;0.03;;;4.70;90.10;;;;;;4954598;28;20042;-67
2023/01/31 03:12:45;;;;;;;0.00;0.00;;;4.60;90.30;;;;;;4971824;28;20121;-66
2023/01/31 03:15:24;;;;;;;0.00;0.00;;;4.70;90.30;;;;;;4971825;28;20101;-66
2023/01/31 03:18:12;;;;;;;0.00;0.00;;;4.70;90.50;;;;;;4971928;28;20050;-66
2023/01/31 03:20:56;;;;;;;0.10;0.10;;;4.70;90.50;;;;;;4971013;28;20047;-67
2023/01/31 03:23:28;;;;;;;0.00;0.00;;;4.80;90.60;;;;;;4971921;28;20047;-66
2023/01/31 03:25:55;;;;;;;0.00;0.00;;;4.80;90.70;;;;;;4954325;28;20042;-66
2023/01/31 03:28:27;;;;;;;0.10;0.10;;;4.80;90.80;;;;;;4971934;28;20055;-66
2023/01/31 03:31:06;;;;;;;0.00;0.00;;;4.80;90.90;;;;;;4971422;28;20059;-66
2023/01/31 03:33:44;;;;;;;0.00;0.00;;;4.90;91.00;;;;;;4954465;28;20065;-66
2023/01/31 03:37:07;;;;;;;0.00;0.00;;;4.90;91.10;;;;;;4969632;28;20047;-66
2023/01/31 03:39:56;;;;;;;0.00;0.00;;;4.90;91.10;;;;;;4913937;29;20039;-66
2023/01/31 03:42:31;;;;;;;0.00;0.00;;;4.90;91.10;;;;;;4920610;29;20111;-66
2023/01/31 03:45:14;;;;;;;0.00;0.00;;;5.00;91.00;;;;;;4939284;28;20055;-66
2023/01/31 03:47:45;;;;;;;0.00;0.00;;;5.00;91.30;;;;;;4959463;28;20046;-67
2023/01/31 03:50:20;;;;;;;0.00;0.00;;;5.00;91.20;;;;;;4937393;28;20050;-66
2023/01/31 03:52:54;;;;;;;0.00;0.00;;;5.10;91.10;;;;;;4959380;28;20453;-66
2023/01/31 03:55:28;;;;;;;0.00;0.00;;;5.10;91.20;;;;;;4955491;28;20039;-66
2023/01/31 03:57:55;;;;;;;0.00;0.00;;;5.10;91.40;;;;;;4967757;28;20129;-66
2023/01/31 04:00:23;;;;;;;0.00;0.00;;;5.10;91.40;;;;;;4971332;28;20039;-66
2023/01/31 04:03:09;;;;;;;0.00;0.00;;;5.10;91.60;;;;;;4970949;28;20042;-66
2023/01/31 04:05:35;;;;;;;0.00;0.00;;;5.20;91.60;;;;;;4970992;28;20508;-66
2023/01/31 04:08:00;;;;;;;0.00;0.00;;;5.10;91.80;;;;;;4971040;28;20047;-67
2023/01/31 04:10:26;;;;;;;0.00;0.00;;;5.20;91.80;;;;;;4970838;28;20061;-67
2023/01/31 04:12:52;;;;;;;0.00;0.00;;;5.20;92.00;;;;;;4952042;28;20047;-67
2023/01/31 04:15:18;;;;;;;0.30;0.30;;;5.20;91.90;;;;;;4968103;28;20369;-66
2023/01/31 04:17:44;;;;;;;0.20;0.20;;;5.30;91.80;;;;;;4952348;28;20054;-66
2023/01/31 04:20:11;;;;;;;0.00;0.00;;;5.20;91.90;;;;;;4966037;28;20043;-66
2023/01/31 04:22:37;;;;;;;0.10;0.10;;;5.20;91.90;;;;;;4970409;28;20419;-66
2023/01/31 04:25:04;;;;;;;0.10;0.10;;;5.20;91.90;;;;;;4970336;28;20047;-66
2023/01/31 04:27:30;;;;;;;0.17;0.17;;;5.20;91.90;;;;;;4969097;28;20488;-66
2023/01/31 04:29:56;;;;;;;0.00;0.00;;;5.30;91.80;;;;;;4959462;28;20074;-66
2023/01/31 04:32:21;;;;;;;0.00;0.00;;;5.30;92.00;;;;;;4970188;28;20563;-67
2023/01/31 04:34:47;;;;;;;7.22;1.25;;;5.30;91.90;;;;;;4970088;28;20061;-66
2023/01/31 04:37:12;;;;;;;0.00;0.00;;;5.30;92.10;;;;;;4970370;28;20061;-66
2023/01/31 04:39:38;;;;;;;0.00;0.00;;;5.30;91.90;;;;;;4970406;28;20126;-66
2023/01/31 04:42:03;;;;;;;0.00;0.00;;;5.30;92.00;;;;;;4970430;28;20043;-67
2023/01/31 04:44:29;;;;;;;0.00;0.00;;;5.40;91.90;;;;;;4970308;28;20054;-66
2023/01/31 04:46:54;;;;;;;0.22;0.22;;;5.30;91.90;;;;;;4923233;29;20044;-66
2023/01/31 04:49:20;;;;;;;0.55;0.55;;;5.30;91.90;;;;;;4951074;28;20118;-66
2023/01/31 04:51:46;;;;;;;0.00;0.00;;;5.30;91.80;;;;;;4950552;28;20039;-66
2023/01/31 04:54:11;;;;;;;0.10;0.10;;;5.20;91.80;;;;;;4950568;28;20050;-66
2023/01/31 04:56:37;;;;;;;0.05;0.05;;;5.20;91.80;;;;;;4950818;28;20847;-66
2023/01/31 04:59:02;;;;;;;0.00;0.00;;;5.20;91.90;;;;;;4950850;28;20043;-66
2023/01/31 05:01:28;;;;;;;0.22;0.22;;;5.20;91.90;;;;;;4950970;28;20036;-66
2023/01/31 05:03:54;;;;;;;0.00;0.00;;;5.10;92.00;;;;;;4950638;28;20043;-66
2023/01/31 05:06:20;;;;;;;0.00;0.00;;;5.10;92.00;;;;;;4918215;28;20047;-66
2023/01/31 05:08:46;;;;;;;0.00;0.00;;;5.10;92.00;;;;;;4933978;28;20134;-67
2023/01/31 05:11:11;;;;;;;0.00;0.00;;;5.10;92.00;;;;;;4950858;28;20389;-66
2023/01/31 05:13:37;;;;;;;0.10;0.10;;;5.20;92.10;;;;;;4951146;28;20047;-66
2023/01/31 05:16:10;;;;;;;0.38;0.38;;;5.20;92.00;;;;;;4950527;28;20629;-66
2023/01/31 05:18:37;;;;;;;0.10;0.10;;;5.30;92.20;;;;;;4950718;28;20089;-66
2023/01/31 05:21:04;;;;;;;0.05;0.05;;;5.30;92.10;;;;;;4950603;28;20043;-66
2023/01/31 05:23:30;;;;;;;40.15;1.77;;;5.40;92.00;;;;;;4964255;28;20051;-66
2023/01/31 05:25:56;;;;;;;0.00;0.00;;;5.40;91.90;;;;;;4958708;28;20045;-66
2023/01/31 05:28:24;;;;;;;0.00;0.00;;;5.50;91.90;;;;;;4951311;28;20043;-66
2023/01/31 05:30:50;;;;;;;0.95;0.90;;;5.50;91.80;;;;;;4951482;28;20103;-66
2023/01/31 05:33:15;;;;;;;0.00;0.00;;;5.60;91.70;;;;;;4943827;28;20051;-66
2023/01/31 05:35:41;;;;;;;0.00;0.00;;;5.60;91.60;;;;;;4950370;28;20054;-66
2023/01/31 05:38:08;;;;;;;0.08;0.08;;;5.60;91.30;;;;;;4964943;28;20642;-66
2023/01/31 05:40:34;;;;;;;0.47;0.47;;;5.70;91.30;;;;;;4970053;28;20086;-65
2023/01/31 05:42:59;;;;;;;0.10;0.10;;;5.70;91.30;;;;;;4969503;28;20054;-66
2023/01/31 05:45:25;;;;;;;0.00;0.00;;;5.70;91.10;;;;;;4950972;28;20042;-66
2023/01/31 05:47:52;;;;;;;0.63;0.63;;;5.70;91.20;;;;;;4940311;28;20055;-65
2023/01/31 05:50:18;;;;;;;0.25;0.25;;;5.80;91.10;;;;;;4969972;28;20078;-66
2023/01/31 05:52:50;;;;;;;0.00;0.00;;;5.80;91.00;;;;;;4969846;28;20093;-65
2023/01/31 05:55:15;;;;;;;0.20;0.20;;;5.80;91.00;;;;;;4946875;28;20049;-66
2023/01/31 05:57:41;;;;;;;0.25;0.25;;;5.90;90.70;;;;;;4967123;28;20051;-64
2023/01/31 06:00:09;;;;;;;2.35;2.20;;;5.90;90.60;;;;;;4967273;28;20433;-66
2023/01/31 06:02:34;;;;;;;0.00;0.00;;;5.90;90.40;;;;;;4968547;28;20034;-66
2023/01/31 06:05:00;;;;;;;0.00;0.00;;;5.90;90.30;;;;;;4969899;28;20599;-66
2023/01/31 06:07:25;;;;;;;0.25;0.25;;;6.00;90.00;;;;;;4959978;28;21126;-66
2023/01/31 06:09:51;;;;;;;0.75;0.75;;;6.00;90.00;;;;;;4971368;28;20779;-66
2023/01/31 06:12:16;;;;;;;0.35;0.13;;;6.10;89.80;;;;;;4966194;28;20039;-66
2023/01/31 06:14:43;;;;;;;0.10;0.10;;;6.10;89.60;;;;;;4967595;28;20051;-66
2023/01/31 06:17:08;;;;;;;0.65;0.65;;;6.20;89.30;;;;;;4970024;28;20058;-65
2023/01/31 06:19:34;;;;;;;0.98;0.88;;;6.20;89.20;;;;;;4961891;28;20051;-65
2023/01/31 06:22:00;;;;;;;0.00;0.00;;;6.20;88.80;;;;;;4969094;28;20400;-65
2023/01/31 06:24:25;;;;;;;0.00;0.00;;;6.20;88.70;;;;;;4955998;28;20066;-66
2023/01/31 06:26:51;;;;;;;0.00;0.00;;;6.20;88.70;;;;;;4933965;28;20086;-66
2023/01/31 06:29:16;;;;;;;0.00;0.00;;;6.20;88.50;;;;;;4967022;28;20060;-66
2023/01/31 06:31:44;;;;;;;2.35;1.48;;;6.20;88.40;;;;;;4957691;28;20508;-66
2023/01/31 06:34:09;;;;;;;0.00;0.00;;;6.20;88.70;;;;;;4952608;28;20138;-66
2023/01/31 06:36:35;;;;;;;3.80;3.45;;;6.20;88.70;;;;;;4922783;28;20118;-66
2023/01/31 06:39:02;;;;;;;0.00;0.00;;;6.30;89.00;;;;;;4970286;28;20065;-66
2023/01/31 06:41:28;;;;;;;0.00;0.00;;;6.30;89.00;;;;;;4953066;28;20047;-65
2023/01/31 06:43:54;;;;;;;0.00;0.00;;;6.30;89.00;;;;;;4970173;28;20062;-65
2023/01/31 06:46:20;;;;;;;0.00;0.00;;;6.20;89.30;;;;;;4970841;28;20508;-65
2023/01/31 06:48:47;;;;;;;0.10;0.10;;;6.20;89.40;;;;;;4957634;28;20582;-65
2023/01/31 06:51:13;;;;;;;0.00;0.00;;;6.30;89.60;;;;;;4959545;28;20039;-66
2023/01/31 06:53:39;;;;;;;0.00;0.00;;;6.20;89.90;;;;;;4965388;28;20080;-66
2023/01/31 06:56:05;;;;;;;0.08;0.08;;;6.20;90.20;;;;;;4970191;28;20495;-66
2023/01/31 06:58:32;;;;;;;0.05;0.05;;;6.10;90.00;;;;;;4970527;28;20552;-65
2023/01/31 07:01:06;;;;;;;0.00;0.00;;;6.10;90.20;;;;;;4958285;28;20562;-65
2023/01/31 07:03:32;;;;;;;0.00;0.00;;;6.10;90.30;;;;;;4952297;28;20063;-66
2023/01/31 07:05:57;;;;;;;2.72;1.85;;;6.20;90.20;;;;;;4952315;28;20039;-65
2023/01/31 07:08:23;;;;;;;0.00;0.00;;;6.10;90.50;;;;;;4963218;28;20082;-65
2023/01/31 07:10:48;;;;;;;0.00;0.00;;;6.10;90.80;;;;;;4944654;28;20083;-66
2023/01/31 07:13:14;;;;;;;0.00;0.00;;;6.10;90.80;;;;;;4957519;28;20069;-66
2023/01/31 07:15:40;;;;;;;0.00;0.00;;;6.10;90.80;;;;;;4963877;28;20035;-66
2023/01/31 07:18:06;;;;;;;0.00;0.00;;;6.00;90.70;;;;;;4950803;28;20053;-66
2023/01/31 07:20:32;;;;;;;0.00;0.00;;;6.00;90.80;;;;;;4953754;28;20058;-66
2023/01/31 07:22:58;;;;;;;0.00;0.00;;;6.00;90.90;;;;;;4971057;28;20110;-67
2023/01/31 07:25:25;;;;;;;0.00;0.00;;;6.00;91.40;;;;;;4969293;28;20077;-67
2023/01/31 07:27:50;;;;;;;0.00;0.00;;;5.90;91.40;;;;;;4970778;28;20043;-68
2023/01/31 07:30:16;;;;;;;0.00;0.00;;;6.00;91.20;;;;;;4937363;28;20058;-68
2023/01/31 07:32:42;;;;;;;0.10;0.10;;;6.00;91.30;;;;;;4956158;28;20110;-69
2023/01/31 07:35:08;;;;;;;0.00;0.00;;;6.00;91.00;;;;;;4960578;28;20039;-69
2023/01/31 07:37:34;;;;;;;0.00;0.00;;;6.10;90.90;;;;;;4926634;28;20055;-70
2023/01/31 07:39:59;;;;;;;33.03;2.85;;;6.00;90.90;;;;;;4975414;28;20101;-70
2023/01/31 07:42:26;;;;;;;0.00;0.00;;;6.00;90.90;;;;;;4937169;28;20458;-70
2023/01/31 07:44:52;;;;;;;0.00;0.00;;;6.00;90.90;;;;;;4967849;28;20130;-69
2023/01/31 07:47:17;;;;;;;0.10;0.10;;;6.00;91.20;;;;;;4953565;28;20139;-69
2023/01/31 07:49:43;;;;;;;0.00;0.00;;;6.10;91.10;;;;;;4953419;28;20047;-69
2023/01/31 07:52:08;;;;;;;0.28;0.28;;;6.10;91.20;;;;;;4935203;28;20512;-68
2023/01/31 07:54:34;;;;;;;0.10;0.10;;;6.10;91.20;;;;;;4950636;29;20134;-68
2023/01/31 07:56:59;;;;;;;0.00;0.00;;;6.10;91.30;;;;;;4950252;28;20504;-68
2023/01/31 07:59:25;;;;;;;0.00;0.00;;;6.20;91.50;;;;;;4950325;28;20417;-68
2023/01/31 08:04:34;;;;;;;0.00;0.00;;;6.20;91.50;;;;;;4949975;28;20456;-69
2023/01/31 08:07:04;;;;;;;0.55;0.55;;;6.20;91.70;;;;;;4950216;28;20061;-68
2023/01/31 08:09:30;;;;;;;0.28;0.28;;;6.10;91.80;;;;;;4951097;28;20516;-68
2023/01/31 08:11:55;;;;;;;1.40;1.30;;;6.20;92.00;;;;;;4918242;28;20082;-68
2023/01/31 08:14:24;;;;;;;0.10;0.10;;;6.20;91.90;;;;;;4918605;29;20085;-69
2023/01/31 08:16:50;;;;;;;0.57;0.57;;;6.20;91.90;;;;;;4951054;28;20043;-69
2023/01/31 08:19:16;;;;;;;0.00;0.00;;;6.20;91.90;;;;;;4934333;28;20481;-69
2023/01/31 08:21:41;;;;;;;0.00;0.00;;;6.20;91.90;;;;;;4951285;28;20043;-69
2023/01/31 08:24:07;;;;;;;1.35;1.08;;;6.30;91.80;;;;;;4934466;29;20051;-68
2023/01/31 08:26:33;;;;;;;0.00;0.00;;;6.30;91.90;;;;;;4955184;28;20038;-69
2023/01/31 08:28:59;;;;;;;0.30;0.30;;;6.40;92.00;;;;;;4937137;28;20110;-68
2023/01/31 08:31:26;;;;;;;53.03;1.95;;;6.30;91.70;;;;;;4970503;28;20046;-68
2023/01/31 08:33:52;;;;;;;0.00;0.00;;;6.40;91.70;;;;;;4953386;28;20046;-69
2023/01/31 08:36:31;;;;;;;0.00;0.00;;;6.40;91.70;;;;;;4970299;28;20053;-69
2023/01/31 08:38:58;;;;;;;1.25;0.85;;;6.40;91.50;;;;;;4936911;28;20051;-68
2023/01/31 08:41:25;;;;;;;0.20;0.20;;;6.40;91.50;;;;;;4969987;28;20035;-69
2023/01/31 08:43:51;;;;;;;0.00;0.00;;;6.40;91.30;;;;;;4970762;28;20130;-69
2023/01/31 08:46:17;;;;;;;0.00;0.00;;;6.50;91.10;;;;;;4970204;28;20090;-68
2023/01/31 08:48:43;;;;;;;0.00;0.00;;;6.50;91.20;;;;;;4970362;28;20407;-69
2023/01/31 08:51:11;;;;;;;0.00;0.00;;;6.40;91.10;;;;;;4970097;28;20134;-69
2023/01/31 08:53:38;;;;;;;0.00;0.00;;;6.50;91.20;;;;;;4936950;28;20531;-69
2023/01/31 08:56:05;;;;;;;0.03;0.03;;;6.50;91.00;;;;;;4960707;28;20110;-69
2023/01/31 08:58:32;;;;;;;0.00;0.00;;;6.50;91.00;;;;;;4950885;28;20043;-68
2023/01/31 09:01:06;;;;;;;0.00;0.00;;;6.60;91.10;;;;;;4950551;28;20059;-69
2023/01/31 09:03:32;;;;;;;0.00;0.00;;;6.60;90.90;;;;;;4951368;28;20154;-69
2023/01/31 09:05:59;;;;;;;0.22;0.22;;;6.60;91.00;;;;;;4950965;28;20543;-69
2023/01/31 09:08:26;;;;;;;0.00;0.00;;;6.60;91.00;;;;;;4950925;28;20051;-69
2023/01/31 09:10:53;;;;;;;0.00;0.00;;;6.60;91.00;;;;;;4950523;28;20055;-68
2023/01/31 09:13:18;;;;;;;0.90;0.90;;;6.60;91.20;;;;;;4950873;29;20035;-69
2023/01/31 09:15:44;;;;;;;0.00;0.00;;;6.70;91.00;;;;;;4950340;28;20054;-69
2023/01/31 09:18:10;;;;;;;0.00;0.00;;;6.70;91.20;;;;;;4950592;28;20059;-69
2023/01/31 09:20:35;;;;;;;0.50;0.50;;;6.70;91.30;;;;;;4950865;29;20078;-69
2023/01/31 09:23:01;;;;;;;2.83;1.65;;;6.80;91.30;;;;;;4950801;28;20858;-69
2023/01/31 09:25:26;;;;;;;0.13;0.13;;;6.70;91.30;;;;;;4954331;28;20449;-69
2023/01/31 09:27:52;;;;;;;0.00;0.00;;;6.80;91.50;;;;;;4952351;28;20487;-69
2023/01/31 09:30:19;;;;;;;0.10;0.10;;;6.80;91.30;;;;;;4969547;28;20039;-69
2023/01/31 09:32:45;;;;;;;0.00;0.00;;;6.90;91.30;;;;;;4970033;28;20487;-69
2023/01/31 09:35:12;;;;;;;0.00;0.00;;;6.90;91.20;;;;;;4969742;28;20079;-69
2023/01/31 09:37:38;;;;;;;0.00;0.00;;;6.90;91.20;;;;;;4970348;28;20058;-69
2023/01/31 09:40:05;;;;;;;0.10;0.10;;;6.90;91.10;;;;;;4956267;28;20051;-69
2023/01/31 09:42:35;;;;;;;6.60;3.10;;;7.00;91.10;;;;;;4973739;28;20043;-69
2023/01/31 09:45:06;;;;;;;0.05;0.05;;;7.00;90.70;;;;;;4973235;28;20085;-69
2023/01/31 09:47:46;;;;;;;3.95;2.28;;;7.00;90.70;;;;;;4973709;28;20054;-69
2023/01/31 09:50:35;;;;;;;0.00;0.00;;;7.00;90.90;;;;;;4956409;28;20074;-69
2023/01/31 09:53:01;;;;;;;0.10;0.10;;;7.00;90.90;;;;;;4973477;28;20043;-69
2023/01/31 09:55:32;;;;;;;0.50;0.47;;;7.10;91.00;;;;;;4972873;28;20038;-69
2023/01/31 09:58:24;;;;;;;0.00;0.00;;;7.00;90.90;;;;;;4955312;28;20125;-69
2023/01/31 10:01:24;;;;;;;0.08;0.08;;;7.00;91.10;;;;;;4973230;28;20088;-69
2023/01/31 10:04:13;;;;;;;4.55;1.95;;;7.00;91.30;;;;;;4973510;28;20105;-69
2023/01/31 10:07:02;;;;;;;0.13;0.13;;;7.00;91.40;;;;;;4973129;28;20049;-69
2023/01/31 10:09:50;;;;;;;0.17;0.17;;;7.00;91.60;;;;;;4973096;28;20499;-69
2023/01/31 10:12:21;;;;;;;0.08;0.08;;;7.10;91.70;;;;;;4972627;28;20151;-69
2023/01/31 10:14:50;;;;;;;0.00;0.00;;;7.10;91.70;;;;;;4972899;28;20050;-69
2023/01/31 10:17:31;;;;;;;0.00;0.00;;;7.00;91.80;;;;;;4972835;28;20050;-69
2023/01/31 10:20:16;;;;;;;0.05;0.05;;;7.00;91.90;;;;;;4972892;28;20046;-69
2023/01/31 10:22:58;;;;;;;0.00;0.00;;;7.00;91.90;;;;;;4973436;28;20463;-69
2023/01/31 10:25:46;;;;;;;0.00;0.00;;;7.10;91.80;;;;;;4967753;28;20059;-69
2023/01/31 10:28:42;;;;;;;0.03;0.03;;;7.10;91.40;;;;;;4947716;28;20055;-69
2023/01/31 10:31:48;;;;;;;0.00;0.00;;;7.00;91.30;;;;;;4963692;28;20055;-69
2023/01/31 10:34:35;;;;;;;0.57;0.57;;;7.10;91.40;;;;;;4878412;29;20793;-69
2023/01/31 10:37:11;;;;;;;0.00;0.00;;;7.10;91.20;;;;;;4893976;29;20076;-69
2023/01/31 10:39:40;;;;;;;0.03;0.03;;;7.10;91.00;;;;;;4948152;28;20745;-69
2023/01/31 10:42:11;;;;;;;0.10;0.10;;;7.20;90.70;;;;;;4972537;28;20146;-69
2023/01/31 10:44:45;;;;;;;0.00;0.00;;;7.30;90.60;;;;;;4972579;28;20635;-69
2023/01/31 10:47:13;;;;;;;0.00;0.00;;;7.40;90.40;;;;;;4972674;28;20046;-69
2023/01/31 10:49:43;;;;;;;0.00;0.00;;;7.30;90.40;;;;;;4971062;28;20379;-69
2023/01/31 10:52:35;;;;;;;0.00;0.00;;;7.40;90.20;;;;;;4954738;28;20046;-68
2023/01/31 10:55:15;;;;;;;0.13;0.13;;;7.50;90.20;;;;;;4972423;28;20050;-69
2023/01/31 10:57:41;;;;;;;0.00;0.00;;;7.50;90.20;;;;;;4954821;28;20062;-69
2023/01/31 11:00:16;;;;;;;0.00;0.00;;;7.50;90.20;;;;;;4971843;28;20520;-69
2023/01/31 11:02:41;;;;;;;0.00;0.00;;;7.50;90.10;;;;;;4938904;28;20046;-69
2023/01/31 11:05:17;;;;;;;0.00;0.00;;;7.60;89.90;;;;;;4972143;28;20061;-69
2023/01/31 11:07:43;;;;;;;0.00;0.00;;;7.50;89.70;;;;;;4971782;28;20066;-69
2023/01/31 11:10:29;;;;;;;0.00;0.00;;;7.60;89.80;;;;;;4969979;28;20043;-70
2023/01/31 11:13:03;;;;;;;0.10;0.10;;;7.60;89.70;;;;;;4971944;28;20042;-69
2023/01/31 11:15:35;;;;;;;0.00;0.00;;;7.70;89.60;;;;;;4954704;28;20042;-69
2023/01/31 11:18:01;;;;;;;0.00;0.00;;;7.70;89.70;;;;;;4971442;28;20838;-69
2023/01/31 11:20:36;;;;;;;3.70;2.20;;;7.70;89.50;;;;;;4954334;28;20053;-69
2023/01/31 11:23:05;;;;;;;0.00;0.00;;;7.80;89.50;;;;;;4971928;28;20054;-69
2023/01/31 11:25:33;;;;;;;0.20;0.20;;;7.80;89.60;;;;;;4971838;28;20400;-69
2023/01/31 11:28:17;;;;;;;0.00;0.00;;;7.80;89.70;;;;;;4954440;28;20043;-69
2023/01/31 11:30:48;;;;;;;2.28;1.45;;;7.90;89.40;;;;;;4971561;28;20067;-69
2023/01/31 11:33:37;;;;;;;1.45;1.35;;;7.90;89.60;;;;;;4971247;28;20050;-69
2023/01/31 11:36:21;;;;;;;0.00;0.00;;;7.90;89.40;;;;;;4971483;28;20183;-70
2023/01/31 11:38:48;;;;;;;0.10;0.10;;;8.00;89.40;;;;;;4971061;28;20547;-70
2023/01/31 11:41:40;;;;;;;0.80;0.75;;;8.10;89.50;;;;;;4971356;28;20047;-70
2023/01/31 11:44:06;;;;;;;0.10;0.10;;;8.10;89.40;;;;;;4953824;28;20051;-70
2023/01/31 11:46:42;;;;;;;0.00;0.00;;;8.10;89.30;;;;;;4937852;28;20500;-70
2023/01/31 11:49:16;;;;;;;0.10;0.10;;;8.30;89.20;;;;;;4953750;28;20043;-70
2023/01/31 11:51:43;;;;;;;1.45;1.08;;;8.30;88.70;;;;;;4971174;28;20176;-71
2023/01/31 11:54:24;;;;;;;0.00;0.00;;;8.30;88.70;;;;;;4971396;28;20133;-70
2023/01/31 11:56:50;;;;;;;0.00;0.00;;;8.30;88.90;;;;;;4971142;28;20062;-70
2023/01/31 11:59:20;;;;;;;1.35;1.08;;;8.40;88.80;;;;;;4961325;28;20126;-68
2023/01/31 12:01:51;;;;;;;0.17;0.17;;;8.30;88.60;;;;;;4950536;28;20039;-68
2023/01/31 12:04:25;;;;;;;2.13;1.30;;;8.30;88.50;;;;;;4951884;28;20047;-68
2023/01/31 12:06:58;;;;;;;0.00;0.00;;;8.40;88.40;;;;;;4952051;28;20059;-68
2023/01/31 12:09:27;;;;;;;6.05;2.30;;;8.40;88.50;;;;;;4951364;28;20052;-69
2023/01/31 12:11:54;;;;;;;0.03;0.03;;;8.40;88.70;;;;;;4934306;29;20161;-68
2023/01/31 12:14:20;;;;;;;0.00;0.00;;;8.40;88.80;;;;;;4951717;29;20109;-68
2023/01/31 12:16:47;;;;;;;0.52;0.52;;;8.40;89.00;;;;;;4918334;28;20078;-68
2023/01/31 12:19:12;;;;;;;0.00;0.00;;;8.50;88.70;;;;;;4962158;28;20046;-68
2023/01/31 12:22:06;;;;;;;0.20;0.20;;;8.40;88.60;;;;;;4970717;28;20081;-69
2023/01/31 12:25:03;;;;;;;0.30;0.30;;;8.40;88.60;;;;;;4970813;28;20133;-68
2023/01/31 12:27:48;;;;;;;0.00;0.00;;;8.50;88.80;;;;;;4970448;28;20046;-69
2023/01/31 12:30:31;;;;;;;0.00;0.00;;;8.60;89.00;;;;;;4970470;28;20137;-68
2023/01/31 12:33:27;;;;;;;0.57;0.57;;;8.60;88.60;;;;;;4970768;28;20099;-68
2023/01/31 12:36:07;;;;;;;0.00;0.00;;;8.60;88.50;;;;;;4970561;28;20110;-68
2023/01/31 12:38:57;;;;;;;0.00;0.00;;;8.60;88.00;;;;;;4970599;28;20050;-68
2023/01/31 12:41:35;;;;;;;7.13;1.38;;;8.70;88.00;;;;;;4970533;28;20082;-68
2023/01/31 12:44:24;;;;;;;0.00;0.00;;;8.70;87.80;;;;;;4970825;28;20043;-69
2023/01/31 12:47:17;;;;;;;0.00;0.00;;;8.80;88.00;;;;;;4947574;28;20062;-70
2023/01/31 12:49:52;;;;;;;0.10;0.10;;;8.90;88.00;;;;;;4955243;28;20397;-69
2023/01/31 12:52:20;;;;;;;0.00;0.00;;;9.10;87.50;;;;;;4951474;29;20578;-69
2023/01/31 12:55:10;;;;;;;0.00;0.00;;;9.10;87.40;;;;;;4950960;28;20051;-69
2023/01/31 12:58:04;;;;;;;0.00;0.00;;;9.20;87.20;;;;;;4951069;28;20047;-69
2023/01/31 13:01:02;;;;;;;0.00;0.00;;;9.30;87.00;;;;;;4951142;28;20051;-69
2023/01/31 13:03:36;;;;;;;0.10;0.10;;;9.20;86.30;;;;;;4933438;29;20492;-69
2023/01/31 13:06:40;;;;;;;0.00;0.00;;;9.20;86.30;;;;;;4950733;29;20051;-69
2023/01/31 13:09:09;;;;;;;0.22;0.22;;;9.10;86.10;;;;;;4929203;29;20055;-69
2023/01/31 13:11:59;;;;;;;2.15;2.00;;;9.10;86.20;;;;;;4948384;28;20055;-69
2023/01/31 13:14:29;;;;;;;0.47;0.47;;;9.00;86.30;;;;;;4969709;28;20846;-69
2023/01/31 13:16:59;;;;;;;0.00;0.00;;;8.90;86.50;;;;;;4954526;28;20055;-69
2023/01/31 13:19:40;;;;;;;0.20;0.20;;;9.00;86.40;;;;;;4965585;28;20145;-70
2023/01/31 13:22:12;;;;;;;0.57;0.57;;;8.80;86.90;;;;;;4973993;28;20086;-69
2023/01/31 13:24:41;;;;;;;0.10;0.10;;;8.80;87.10;;;;;;4973937;28;20051;-69
2023/01/31 13:27:15;;;;;;;0.17;0.17;;;8.80;87.00;;;;;;4973444;28;20105;-69